TFM - Tactical Decision Aid
ID: Runway Winds: CIG/VIS Threshold:

KHOB - Hobbs Arpt, NM, US

Updated at: 1314 UTC 26 Feb 2021
Latest TAF at: 1120 UTC 26 Feb 2021

TAF Board

Time1250Z 26/14Z 26/15Z 26/16Z 26/17Z 26/18Z 26/19Z 26/20Z 26/21Z 26/22Z 26/23Z 27/00Z 27/01Z 27/02Z>>
Type OBS PRVL PRVL PRVL PRVL PRVL PRVL PRVL PRVL PRVL PRVL PRVL PRVL PRVL
VIS 10 >6 >6 >6 >6 >6 >6 >6 >6 >6 >6 >6 >6 >6
CIG -- -- -- -- -- -- -- -- -- -- -- -- -- --
Cover SKC SCT SCT SCT SCT SCT SCT SCT SCT SCT SCT SCT SCT SCT
FltCat VFR VFR VFR VFR VFR VFR VFR VFR VFR VFR VFR VFR VFR VFR
WX -- -- -- -- -- -- -- -- -- -- -- -- -- --
WDir 200 230 230 230 230 230 230 230 230 230 230 230 230 230
WSpd 7 10 10 10 10 10 10 10 10 10 10 10 10 10
WGst -- -- -- -- -- -- -- -- -- -- -- -- -- --

TDA Impact Legend

  None Marginal Slight Moderate High
Visibility (sm) >5 3≤X≤5 2≤X<3 0.5≤X<2 <0.5
Ceiling (100 ft) >30 10≤X≤30 6≤X<10 2≤X<6 <2
Wind Speed (kt) <15 15≤X<25 25≤X<30 ≥30
Wind Gust (kt) <15 15≤X<25 25≤X<35 ≥35
Weather No Wx Reported VCTS -TS,-FZRA TS,FZRA +TS,+FZRA
TAF
KHOB 261120Z 2612/2712 23010KT P6SM SCT250

METAR
KHOB 261250Z 20007KT 10SM SKC M04/M05 A2996
KHOB 261235Z AUTO 21008KT 10SM CLR M04/M06 A2997 RMK AO2
KHOB 261215Z AUTO 24009KT 10SM CLR M04/M07 A2997 RMK AO2
KHOB 261155Z AUTO 25007KT 10SM CLR M04/M07 A2996 RMK AO2
KHOB 261135Z AUTO 25008KT 10SM CLR M04/M07 A2997 RMK AO2
KHOB 261115Z AUTO 25007KT 10SM CLR M05/M08 A2997 RMK AO2
KHOB 261055Z AUTO 26007KT 10SM CLR M05/M09 A2998 RMK AO2
KHOB 261035Z AUTO 26008KT 10SM CLR M05/M09 A2998 RMK AO2
KHOB 261015Z AUTO 30006KT 10SM CLR M05/M10 A2998 RMK AO2
KHOB 260955Z AUTO 28005KT 10SM CLR M05/M10 A2998 RMK AO2

Radar Display
Forecast Discussion